Class Rankings for Red

Rankings date: Apr 01, 2012

View Red rankings by course

M45+

Class Rank Overall Rank Name Club YB Score Time # Events OUSA
1 2 Sergiy Gnatiouk HVO 1967 99.63 01:00:14 11 Y
2 7 Joe Brautigam WCOC 1962 95.68 01:02:43 6 Y
3 10 Sergey Velichko CTOC 1962 93.72 01:04:01 8 Y
4 12 Gregory Balter DVOA 1963 91.84 01:05:20 13 Y
5 17 Thomas Carr NTOA 1966 86.69 01:09:13 8 Y
6 19 Eugene Mlynczyk UKR 1966 84.75 01:10:48 14 Y
7 21 Peter Gagarin CSU 1944 84.13 01:11:19 5 Y
8 23 Michael Eglinski OK 1964 82.66 01:12:35 8 Y
9 25 Ted Good QOC 1964 81.91 01:13:15 13 Y
10 30 Stephen Wilson 1965 80.51 01:14:32 8 Y
11 32 Jeffrey Saeger NEOC 1949 79.67 01:15:18 8 Y
12 34 Clinton Morse WCOC 1962 78.52 01:16:25 9 Y
13 35 Nadim Ahmed QOC 1961 78.20 01:16:44 10 Y
14 40 Andras Revesz DVOA 1962 76.77 01:18:09 4 Y
15 43 Stefan Slutsky HVO 1962 76.17 01:18:46 7 Y
16 45 Daniel Schaublin HVO 1957 75.17 01:19:49 5 Y
17 46 Deron van Hoff BAOC 1966 74.96 01:20:03 6 Y
18 47 Randy Kemp OOC 1962 74.57 01:20:28 6 Y
19 55 Andrew Cornett OOC 1961 72.75 01:22:28 4 Y
20 56 Martin Farenfield QOC 1967 72.54 01:22:43 7 Y
21 58 Joseph Sackett Jr CAOC 1965 70.62 01:24:58 6 Y
22 59 Michael Hendricks 1964 69.07 01:26:52 9 Y
23 60 Glen Tryson EMPO 1953 68.96 01:27:00 7 Y
24 61 Paul Carson Truckee 1962 68.88 01:27:06 5 Y
25 62 Michael Lyons ROC 1963 68.42 01:27:42 17 Y
26 65 Alexis Rzewski WPOC 1963 67.33 01:29:07 5 Y
27 67 Sevastian Irimie STARS 1962 67.11 01:29:24 5 Y
28 68 Rick DeWitt WCOC 1958 67.02 01:29:31 7 Y
29 70 David Onkst QOC 1962 65.47 01:31:38 4 Y
30 74 Walter Siegenthaler COK 1949 64.31 01:33:18 5 Y
31 77 David Waller BOK 1956 61.25 01:37:57 8 Y
32 78 Kenneth Walker Sr. CSU 1949 60.86 01:38:35 4 Y
33 79 Michael Bruns CROC 1965 60.16 01:39:44 9 Y
34 80 David Yee NEOC 1963 60.01 01:39:59 14 Y
35 82 William Langton SLOC 1963 59.29 01:41:12 6 Y
36 87 Steve Tylock ROC 1964 57.37 01:44:35 4 Y
37 88 Jonas Libell GCO 0 56.33 01:46:31 5 Y
38 89 Robert Minto ICO 1966 56.17 01:46:49 9 Y
39 93 Carl Muench QOC 1964 54.03 01:51:03 6 Y
40 99 Luc Poppe BAOC 1953 52.46 01:54:22 4 Y
41 101 Jim Hall COK 1945 51.70 01:56:03 6 Y
42 102 Eric Smith CNYO 1943 51.66 01:56:08 8 Y
43 103 Misha Kreslavsky BAOC 1961 51.51 01:56:28 4 Y
44 104 Alexander Izzo SMOC 1963 51.13 01:57:21 4 Y
45 105 Francis Hogle QOC 1944 50.83 01:58:03 5 Y
46 106 Rick Worner ROC 1950 50.46 01:58:54 7 Y
47 107 Allen Hubsch LAOC 1964 48.53 02:03:38 5 Y
48 110 Scott Drumm CROC 1965 44.78 02:13:59 10 Y
49 111 Steven Barnhart MVOC 1964 44.22 02:15:40 6 Y
50 112 Billy Allaband DVOA 1962 39.03 02:33:45 4 Y
51 113 Theo Verhoeven BAOC 1958 37.58 02:39:40 4 Y
52 114 Jim Benton OCIN 1967 36.39 02:44:53 4 Y
53 122 Sam Levitin NEOC 1962 26.39 03:47:19 4 Y
54 124 Patrick Coneff CAOC 1967 20.66 04:50:25 4 Y
55 125 Michael Reese CAOC 1964 17.65 05:40:01 4 Y
    Mikell Platt LROC 1958 98.55 01:00:53 3 Y
    Krum Sergiev GMOC 1961 82.49 01:12:44 3 Y
    Martin Greiner 1963 82.32 01:12:53 3 Y
    Adrian Zissos FWOC 1958 78.91 01:16:02 3 Y
    Ernst Linder UNO 1954 78.49 01:16:27 3 Y
    J-J Cote LROC 1961 71.07 01:24:26 3 Y
    Tom Strat QOC 1955 69.40 01:26:27 3 Y
    Kimball Forrest 1954 67.07 01:29:28 3 Y
    Alex Finch BAOC 1962 65.71 01:31:19 3 Y
    Phil Bricker NEOC 1954 61.22 01:38:01 3 Y
    Jeffrey Schapiro NEOC 1959 58.95 01:41:46 3 Y
    Jan Urban COC 1963 55.71 01:47:42 3 Y
    Jeff Grove COC 1964 53.69 01:51:45 3 Y
    Dean Sturtevant NEOC 1955 52.09 01:55:12 3 Y
    Blair Ross 1956 48.27 02:04:18 3 Y
    Matthew Robbins OCIN 1966 46.49 02:09:03 3 Y
    Howie Weinstein QOC 1978 38.32 02:36:34 3 Y
    Graeme Ackland 1962 96.54 01:02:09 2 Y
    Randy Hall 1965 79.70 01:15:17 2 Y
    David Ross ONB 1956 76.26 01:18:41 2 Y
    David Frei MNOC 1964 74.05 01:21:01 2 Y
    Derek Maclean BAOC 1966 73.91 01:21:11 2 Y
    Petr Hartman DVOA 1962 72.57 01:22:41 2 Y
    Charlie DeWeese WCOC 1947 65.86 01:31:06 2 Y
    Michael Minium OCIN 1960 64.32 01:33:17 2 Y
    David Webber HVO 1958 63.98 01:33:47 2 Y
    Nicolai Mejevoi CAOC 1964 60.68 01:38:52 2 Y
    Stephen Harrison BAOC 1964 57.52 01:44:18 2 Y
    Mike Bertram SVO 1949 56.74 01:45:45 2 Y
    Paul Bradley BOK 1962 56.70 01:45:49 2 Y
    Eric Rosenzweig BAOC 1965 55.74 01:47:38 2 Y
    Kevin Brooker 1966 51.19 01:57:12 2 Y
    Andrew Vakhutinsky NEOC 1965 49.09 02:02:14 2 Y
    John Baker QOC 1966 46.78 02:08:16 2 Y
    Steve Heron ONB 1966 43.23 02:18:48 2 Y
    Bob Lux UNO 46 35.37 02:49:39 2 Y
    Tom Svobodny MVOC 1958 34.85 02:52:10 2 Y
    Mark Walsh HVO 1959 32.14 03:06:39 2 Y
    Alan Sauvage COC 1963 31.92 03:07:57 2 Y
    Mike Carter DVOA 1966 30.80 03:14:49 2 Y
    Jeff Sterett GCO 0 12.90 07:44:58 2 Y
    Matthew Harmody BOK 1961 0.00 2 Y
    Brian Graham OOC 1964 100.61 00:59:38 1 Y
    James Tasker NEOC 1959 89.15 01:07:18 1 Y
    Neil Crickmore 1962 84.52 01:10:59 1 Y
    David Bondy TOC 1962 68.89 01:27:06 1 Y
    Blake Tresan 1965 61.99 01:36:47 1 Y
    Paul Bennett HVO 1957 61.39 01:37:44 1 Y
    Fred Reed DVOA 1958 56.99 01:45:17 1 Y
    John Magnus UNO 1963 56.50 01:46:12 1 Y
    Bob Bullions HVO 1943 55.19 01:48:43 1 Y
    Joel Shore ROC 1964 53.74 01:51:39 1 Y
    Fritz Menninger OK 1957 52.31 01:54:42 1 Y
    Ken Vomaske BAOC 1961 49.07 02:02:16 1 Y
    Stephen Templeton HVO 1954 48.94 02:02:37 1 Y
    Daniel Bond VOC 1964 48.72 02:03:10 1 Y
    Peter Graube BAOC 1953 46.61 02:08:44 1 Y
    Alexander Bass HVO 1980 46.59 02:08:47 1 Y
    Stewart Hintz GCO 1965 43.30 02:18:34 1 Y
    Ray Rosenbaum BAOC 0 40.19 02:29:17 1 Y
    Eric Bressler LIOC 1950 35.59 02:48:36 1 Y
    John Pekarik LIOC 1941 31.65 03:09:34 1 Y
    Boris Velednitsky A/L 1961 0.00 1 Y
    Dan Barker DVOA 1957 0.00 1 Y